Time;durP1;ratioP1;P1;durP2;ratioP2;P2;SDS_P1;SDS_P2;PMS_P1;PMS_P2;Temp;Humidity;BMP_temperature;BMP_pressure;BME280_temperature;BME280_humidity;BME280_pressure;Samples;Min_cycle;Max_cycle;Signal;HPM_P1;HPM_P2
2020/12/17 00:01:18;;;;;;;;;50.75;38.00;;;;;13.84;51.15;99219.28;4799710;28;104085;-78
2020/12/17 00:03:44;;;;;;;;;53.00;41.50;;;;;13.83;52.00;99214.03;4791473;28;103610;-78
2020/12/17 00:06:12;;;;;;;;;50.50;39.25;;;;;13.81;51.60;99214.25;4786473;28;103815;-78
2020/12/17 00:08:39;;;;;;;;;49.00;38.25;;;;;13.80;51.46;99214.47;4799063;28;103766;-78
2020/12/17 00:11:07;;;;;;;;;50.75;38.25;;;;;13.77;52.00;99213.00;4793171;29;104172;-78
2020/12/17 00:13:33;;;;;;;;;42.00;35.00;;;;;13.76;51.85;99215.91;4799047;29;102094;-78
2020/12/17 00:16:00;;;;;;;;;43.50;38.00;;;;;13.74;52.28;99212.56;4793540;28;102454;-78
2020/12/17 00:18:27;;;;;;;;;46.00;37.50;;;;;13.72;51.46;99214.66;4797460;28;103160;-78
2020/12/17 00:20:53;;;;;;;;;41.75;35.25;;;;;13.70;52.17;99209.41;4790295;28;105246;-78
2020/12/17 00:23:20;;;;;;;;;50.00;38.00;;;;;13.69;52.11;99210.47;4793561;28;102202;-78
2020/12/17 00:25:47;;;;;;;;;44.50;37.00;;;;;13.67;51.28;99206.28;4794514;28;102429;-78
2020/12/17 00:28:13;;;;;;;;;44.00;38.25;;;;;13.65;51.87;99201.03;4792917;28;102539;-78
2020/12/17 00:30:40;;;;;;;;;46.50;38.25;;;;;13.63;51.74;99205.03;4792155;28;104086;-78
2020/12/17 00:33:07;;;;;;;;;50.25;39.25;;;;;13.63;51.73;99208.59;4810728;28;102366;-78
2020/12/17 00:35:34;;;;;;;;;41.25;35.50;;;;;13.60;51.74;99206.25;4793342;29;102703;-78
2020/12/17 00:38:00;;;;;;;;;46.50;37.50;;;;;13.59;51.39;99212.75;4790699;29;102729;-78
2020/12/17 00:40:27;;;;;;;;;45.50;37.00;;;;;13.58;51.91;99218.38;4791086;29;104058;-78
2020/12/17 00:42:54;;;;;;;;;49.50;38.00;;;;;13.54;51.65;99209.81;4790315;29;102554;-78
2020/12/17 00:45:22;;;;;;;;;47.00;37.00;;;;;13.54;52.25;99206.25;4784652;29;106190;-78
2020/12/17 00:47:49;;;;;;;;;50.50;39.75;;;;;13.53;51.33;99210.00;4795691;29;102252;-79
2020/12/17 00:50:16;;;;;;;;;42.00;34.75;;;;;13.50;52.36;99218.59;4790026;29;104262;-78
2020/12/17 00:52:43;;;;;;;;;41.75;35.00;;;;;13.49;52.13;99211.47;4804971;28;106551;-78
2020/12/17 00:55:10;;;;;;;;;44.00;36.00;;;;;13.49;52.49;99217.75;4791043;29;103449;-78
2020/12/17 00:57:36;;;;;;;;;47.50;38.25;;;;;13.46;52.25;99210.00;4798160;28;104553;-78
2020/12/17 01:00:05;;;;;;;;;49.50;38.00;;;;;13.45;52.46;99218.34;4792149;29;108951;-78
2020/12/17 01:02:32;;;;;;;;;37.00;31.00;;;;;13.44;51.87;99213.97;4794859;29;103415;-78
2020/12/17 01:04:59;;;;;;;;;44.25;36.50;;;;;13.42;51.47;99203.28;4794212;28;102103;-78
2020/12/17 01:07:25;;;;;;;;;50.75;37.00;;;;;13.40;52.08;99194.53;4787247;29;103696;-78
2020/12/17 01:09:52;;;;;;;;;40.00;34.75;;;;;13.39;52.14;99199.09;4790986;28;104037;-78
2020/12/17 01:12:19;;;;;;;;;44.75;36.00;;;;;13.38;52.45;99204.75;4798735;28;102553;-78
2020/12/17 01:14:46;;;;;;;;;35.25;33.50;;;;;13.38;51.50;99208.28;4798469;29;103952;-78
2020/12/17 01:17:13;;;;;;;;;43.50;37.50;;;;;13.36;52.43;99217.69;4794608;29;110437;-78
2020/12/17 01:19:40;;;;;;;;;43.50;36.00;;;;;13.35;51.94;99211.44;4809272;28;104023;-78
2020/12/17 01:22:07;;;;;;;;;42.00;34.50;;;;;13.33;52.55;99218.94;4801404;29;102446;-78
2020/12/17 01:24:33;;;;;;;;;36.50;33.50;;;;;13.32;51.51;99217.28;4811259;28;104248;-78
2020/12/17 01:27:00;;;;;;;;;43.00;35.75;;;;;13.32;51.58;99213.72;4795774;28;102210;-78
2020/12/17 01:29:27;;;;;;;;;44.50;36.00;;;;;13.31;51.46;99212.03;4796783;28;104029;-78
2020/12/17 01:31:57;;;;;;;;;41.25;33.00;;;;;13.29;52.26;99212.22;4795932;28;103079;-77
2020/12/17 01:34:24;;;;;;;;;41.00;37.00;;;;;13.28;52.26;99207.84;4789707;28;102503;-78
2020/12/17 01:36:52;;;;;;;;;41.00;33.50;;;;;13.27;51.71;99203.47;4795810;29;102246;-78
2020/12/17 01:39:21;;;;;;;;;49.25;38.00;;;;;13.24;52.67;99201.13;4794219;28;104053;-78
2020/12/17 01:41:47;;;;;;;;;42.00;36.25;;;;;13.25;51.56;99201.97;4776311;28;102951;-78
2020/12/17 01:44:14;;;;;;;;;47.00;33.25;;;;;13.23;52.62;99196.78;4792005;28;102210;-78
2020/12/17 01:46:41;;;;;;;;;42.75;35.50;;;;;13.23;51.68;99193.22;4798059;29;102536;-78
2020/12/17 01:49:08;;;;;;;;;41.25;36.00;;;;;13.20;52.08;99189.00;4792270;28;104035;-78
2020/12/17 01:51:34;;;;;;;;;35.75;32.75;;;;;13.22;51.71;99194.25;4796601;28;102763;-78
2020/12/17 01:54:01;;;;;;;;;45.25;36.75;;;;;13.20;51.64;99188.16;4795499;29;107816;-78
2020/12/17 01:56:28;;;;;;;;;44.00;35.75;;;;;13.18;52.49;99191.09;4800400;28;102246;-78
2020/12/17 01:59:04;;;;;;;;;43.00;32.25;;;;;13.17;52.27;99181.28;4794036;29;104091;-78
2020/12/17 02:01:31;;;;;;;;;37.25;33.25;;;;;13.16;52.28;99187.75;4794481;28;103209;-78
2020/12/17 02:03:59;;;;;;;;;38.75;33.25;;;;;13.16;52.52;99187.75;4795630;28;103388;-78
2020/12/17 02:06:25;;;;;;;;;35.25;32.00;;;;;13.15;51.70;99191.50;4778603;28;102551;-78
2020/12/17 02:08:52;;;;;;;;;39.25;32.00;;;;;13.15;52.73;99182.53;4777550;28;104053;-78
2020/12/17 02:11:21;;;;;;;;;49.00;30.50;;;;;13.14;52.51;99183.56;4798931;29;102550;-78
2020/12/17 02:13:50;;;;;;;;;37.25;31.50;;;;;13.14;51.65;99184.41;4787807;28;102826;-78
2020/12/17 02:16:19;;;;;;;;;37.50;33.50;;;;;13.13;51.84;99185.44;4793072;28;102150;-78
2020/12/17 02:18:52;;;;;;;;;41.50;33.25;;;;;13.12;52.56;99189.19;4796503;28;103206;-78
2020/12/17 02:21:20;;;;;;;;;38.00;33.25;;;;;13.11;52.21;99183.97;4796701;29;102215;-78
2020/12/17 02:23:49;;;;;;;;;34.50;33.25;;;;;13.10;52.54;99185.84;4791925;28;106268;-78
2020/12/17 02:26:19;;;;;;;;;38.50;32.75;;;;;13.10;52.28;99183.13;4795325;28;103577;-78
2020/12/17 02:28:47;;;;;;;;;35.25;31.50;;;;;13.09;52.26;99180.59;4799758;28;105123;-78
2020/12/17 02:31:17;;;;;;;;;41.75;33.50;;;;;13.07;51.55;99178.06;4806545;28;103772;-78
2020/12/17 02:33:45;;;;;;;;;40.00;35.00;;;;;13.10;52.46;99185.00;4794159;28;102452;-77
2020/12/17 02:36:14;;;;;;;;;39.50;34.50;;;;;13.06;51.50;99181.81;4798569;28;102294;-77
2020/12/17 02:38:43;;;;;;;;;42.25;35.25;;;;;13.06;52.30;99189.16;4795639;28;103665;-78
2020/12/17 02:41:12;;;;;;;;;35.50;31.25;;;;;13.05;52.47;99187.47;4791382;29;103424;-77
2020/12/17 02:43:40;;;;;;;;;33.25;30.75;;;;;13.04;51.97;99178.50;4792958;29;102459;-78
2020/12/17 02:46:09;;;;;;;;;35.50;33.00;;;;;13.04;52.63;99180.34;4796858;29;102603;-78
2020/12/17 02:48:38;;;;;;;;;35.00;31.00;;;;;13.02;51.74;99185.97;4789113;28;108276;-78
2020/12/17 02:51:05;;;;;;;;;29.25;26.25;;;;;13.02;51.67;99185.97;4797105;29;102510;-77
2020/12/17 02:53:31;;;;;;;;;37.00;33.00;;;;;13.02;52.39;99179.72;4796811;28;102557;-78
2020/12/17 02:55:58;;;;;;;;;36.75;30.50;;;;;13.01;52.14;99175.34;4797049;28;104111;-78
2020/12/17 02:58:25;;;;;;;;;41.25;33.00;;;;;13.02;52.68;99174.28;4788834;28;104043;-78
2020/12/17 03:00:52;;;;;;;;;36.00;29.50;;;;;13.00;51.69;99174.50;4794332;28;103490;-77
2020/12/17 03:03:18;;;;;;;;;34.25;28.75;;;;;12.99;52.77;99175.53;4793492;28;102300;-77
2020/12/17 03:05:45;;;;;;;;;32.75;30.00;;;;;12.97;52.34;99177.59;4785088;29;102599;-78
2020/12/17 03:08:18;;;;;;;;;35.00;33.00;;;;;12.96;51.84;99174.06;4792156;28;104301;-78
2020/12/17 03:10:45;;;;;;;;;31.50;26.50;;;;;12.97;52.41;99172.16;4795799;29;102170;-78
2020/12/17 03:13:11;;;;;;;;;35.50;30.00;;;;;12.96;51.65;99171.38;4802113;29;102207;-78
2020/12/17 03:15:38;;;;;;;;;38.25;30.25;;;;;12.94;52.63;99165.28;4800391;28;102611;-78
2020/12/17 03:18:05;;;;;;;;;28.25;26.00;;;;;12.94;52.33;99162.56;4796602;29;108766;-78
2020/12/17 03:20:31;;;;;;;;;35.75;30.50;;;;;12.93;52.71;99165.47;4796778;28;103293;-78
2020/12/17 03:22:58;;;;;;;;;26.00;21.75;;;;;12.94;52.76;99173.44;4790611;29;102563;-78
2020/12/17 03:25:25;;;;;;;;;33.75;30.00;;;;;12.92;52.48;99170.06;4794736;28;103567;-77
2020/12/17 03:27:51;;;;;;;;;31.75;27.50;;;;;12.92;52.24;99180.13;4795449;29;104025;-78
2020/12/17 03:30:18;;;;;;;;;33.50;29.75;;;;;12.92;52.15;99169.25;4794432;28;102685;-78
2020/12/17 03:32:45;;;;;;;;;39.00;31.00;;;;;12.91;51.71;99162.16;4794367;28;103840;-78
2020/12/17 03:35:11;;;;;;;;;34.25;28.25;;;;;12.90;52.56;99165.91;4798189;29;103354;-78
2020/12/17 03:37:38;;;;;;;;;30.25;25.50;;;;;12.89;52.20;99158.78;4795781;29;105161;-77
2020/12/17 03:40:05;;;;;;;;;34.75;29.00;;;;;12.89;51.67;99158.78;4792911;29;102873;-77
2020/12/17 03:42:31;;;;;;;;;35.00;30.75;;;;;12.88;51.77;99162.53;4792187;28;102617;-78
2020/12/17 03:44:58;;;;;;;;;29.75;25.25;;;;;12.86;51.62;99154.59;4791835;29;103614;-77
2020/12/17 03:47:24;;;;;;;;;37.00;29.50;;;;;12.86;52.68;99156.47;4794629;28;104197;-78
2020/12/17 03:49:51;;;;;;;;;30.25;24.25;;;;;12.84;52.07;99156.66;4792486;28;102511;-78
2020/12/17 03:52:18;;;;;;;;;33.25;29.50;;;;;12.86;51.75;99170.06;4794966;29;102407;-78
2020/12/17 03:54:45;;;;;;;;;27.50;26.00;;;;;12.85;51.92;99162.94;4792797;29;102597;-78
2020/12/17 03:57:12;;;;;;;;;32.75;28.50;;;;;12.84;52.56;99163.97;4792929;29;104032;-78
2020/12/17 03:59:39;;;;;;;;;32.25;29.50;;;;;12.83;52.41;99165.84;4797010;28;102969;-78
2020/12/17 04:02:05;;;;;;;;;26.00;25.00;;;;;12.82;52.60;99164.19;4795452;29;102759;-78
2020/12/17 04:04:32;;;;;;;;;32.00;27.25;;;;;12.82;51.98;99166.91;4792948;28;102515;-78
2020/12/17 04:07:01;;;;;;;;;32.75;28.75;;;;;12.81;52.04;99167.94;4789929;29;104148;-78
2020/12/17 04:09:28;;;;;;;;;30.50;27.75;;;;;12.81;51.82;99169.81;4792542;28;102350;-78
2020/12/17 04:11:55;;;;;;;;;23.00;20.75;;;;;12.81;51.92;99164.38;4790096;29;102699;-78
2020/12/17 04:14:21;;;;;;;;;30.25;28.75;;;;;12.79;51.90;99171.88;4795551;29;102510;-78
2020/12/17 04:16:48;;;;;;;;;32.00;30.00;;;;;12.79;52.49;99170.00;4795683;29;104142;-78
2020/12/17 04:19:15;;;;;;;;;36.00;30.00;;;;;12.79;51.82;99174.59;4791794;29;103055;-78
2020/12/17 04:21:43;;;;;;;;;28.75;24.50;;;;;12.79;52.23;99171.88;4794611;28;103004;-78
2020/12/17 04:24:10;;;;;;;;;27.00;22.25;;;;;12.77;51.77;99172.09;4811186;28;102271;-80
2020/12/17 04:26:37;;;;;;;;;25.75;24.00;;;;;12.76;52.71;99161.44;4792912;28;104120;-80
2020/12/17 04:29:04;;;;;;;;;29.50;26.00;;;;;12.76;52.31;99169.56;4795260;29;103654;-80
2020/12/17 04:31:31;;;;;;;;;25.50;23.50;;;;;12.75;51.75;99165.19;4796573;29;103716;-80
2020/12/17 04:33:57;;;;;;;;;31.50;27.50;;;;;12.75;51.65;99168.72;4794779;29;102396;-80
2020/12/17 04:36:25;;;;;;;;;29.75;23.75;;;;;12.75;51.71;99165.19;4792183;28;104135;-80
2020/12/17 04:38:51;;;;;;;;;28.75;26.50;;;;;12.75;52.32;99170.59;4797290;29;103842;-80
2020/12/17 04:41:19;;;;;;;;;32.50;27.25;;;;;12.73;52.72;99176.25;4780443;29;102486;-80
2020/12/17 04:43:46;;;;;;;;;29.50;27.75;;;;;12.73;52.48;99172.69;4792606;28;102739;-79
2020/12/17 04:46:16;;;;;;;;;29.75;26.00;;;;;12.74;52.30;99177.09;4787540;29;105717;-80
2020/12/17 04:48:43;;;;;;;;;28.00;26.00;;;;;12.73;51.76;99164.56;4804645;28;103053;-80
2020/12/17 04:51:10;;;;;;;;;31.50;27.50;;;;;12.73;52.13;99175.41;4774260;29;102667;-79
2020/12/17 04:53:36;;;;;;;;;35.75;29.50;;;;;12.70;51.63;99165.78;4789216;28;103762;-80
2020/12/17 04:56:04;;;;;;;;;27.75;24.75;;;;;12.72;52.48;99174.56;4789754;29;104227;-78
2020/12/17 04:58:31;;;;;;;;;29.25;25.25;;;;;12.72;52.66;99165.59;4787546;29;102335;-78
2020/12/17 05:00:58;;;;;;;;;28.50;24.00;;;;;12.71;52.61;99164.75;4785845;28;102530;-78
2020/12/17 05:03:24;;;;;;;;;31.00;27.25;;;;;12.70;52.61;99176.63;4791859;29;102269;-78
2020/12/17 05:05:51;;;;;;;;;31.25;26.50;;;;;12.70;51.93;99178.53;4782176;29;104058;-78
2020/12/17 05:08:20;;;;;;;;;27.50;25.50;;;;;12.70;51.84;99186.69;4784574;29;102268;-78
2020/12/17 05:10:47;;;;;;;;;31.25;25.75;;;;;12.68;51.99;99183.31;4787086;29;102742;-77
2020/12/17 05:13:16;;;;;;;;;35.00;28.75;;;;;12.66;52.48;99182.66;4791674;29;102552;-78
2020/12/17 05:15:43;;;;;;;;;28.25;23.25;;;;;12.66;52.53;99182.66;4784284;28;104050;-78
2020/12/17 05:18:10;;;;;;;;;32.75;26.25;;;;;12.65;51.72;99190.00;4790585;29;102246;-78
2020/12/17 05:20:40;;;;;;;;;30.50;28.00;;;;;12.66;51.74;99190.81;4793054;29;102622;-78
2020/12/17 05:23:06;;;;;;;;;27.00;24.25;;;;;12.65;51.75;99194.59;4789047;29;102705;-78
2020/12/17 05:25:33;;;;;;;;;31.25;22.25;;;;;12.63;51.89;99193.94;4784690;28;104066;-80
2020/12/17 05:28:03;;;;;;;;;29.25;24.50;;;;;12.63;52.50;99192.06;4790092;28;103589;-80
2020/12/17 05:30:33;;;;;;;;;25.25;22.75;;;;;12.62;52.09;99187.66;4789213;29;102894;-80
2020/12/17 05:33:00;;;;;;;;;27.75;24.75;;;;;12.63;51.98;99191.22;4796107;28;105486;-80
2020/12/17 05:35:31;;;;;;;;;29.75;23.00;;;;;12.61;51.87;99188.69;4787850;28;104207;-80
2020/12/17 05:38:00;;;;;;;;;29.50;22.00;;;;;12.61;52.04;99187.88;4788357;29;103169;-79
2020/12/17 05:40:26;;;;;;;;;23.50;22.25;;;;;12.60;52.40;99187.03;4779639;29;103652;-79
2020/12/17 05:42:54;;;;;;;;;27.50;23.75;;;;;12.61;51.78;99188.69;4784000;29;104415;-79
2020/12/17 05:45:29;;;;;;;;;27.00;21.00;;;;;12.60;51.91;99191.63;4786927;28;104081;-79
2020/12/17 05:48:19;;;;;;;;;32.00;26.00;;;;;12.58;52.47;99189.09;4784068;29;102658;-80
2020/12/17 05:50:50;;;;;;;;;28.00;24.50;;;;;12.60;51.92;99194.34;4680824;29;104493;-80
2020/12/17 05:53:17;;;;;;;;;32.75;26.00;;;;;12.57;52.49;99197.44;4781640;29;103989;-79
2020/12/17 05:55:44;;;;;;;;;32.00;26.50;;;;;12.58;52.46;99199.94;4778434;29;104081;-78
2020/12/17 05:58:11;;;;;;;;;26.25;24.25;;;;;12.55;52.18;99199.50;4775676;29;106214;-77
2020/12/17 06:00:38;;;;;;;;;28.25;23.00;;;;;12.58;52.37;99199.09;4783624;29;103613;-77
2020/12/17 06:03:10;;;;;;;;;25.00;22.50;;;;;12.59;53.34;99206.22;4789700;28;102370;-77
2020/12/17 06:05:44;;;;;;;;;27.50;22.50;;;;;12.60;52.92;99207.91;4782039;28;108094;-77
2020/12/17 06:08:17;;;;;;;;;32.25;24.00;;;;;12.58;52.13;99201.81;4807757;28;103291;-78
2020/12/17 06:10:47;;;;;;;;;26.75;25.00;;;;;12.58;52.23;99204.53;4797511;29;104195;-77
2020/12/17 06:13:15;;;;;;;;;26.25;23.00;;;;;12.58;52.61;99204.53;4795819;28;102367;-77
2020/12/17 06:15:44;;;;;;;;;22.50;20.75;;;;;12.56;52.59;99195.78;4787411;28;103977;-77
2020/12/17 06:18:14;;;;;;;;;24.25;22.25;;;;;12.57;52.48;99202.84;4794739;28;102616;-77
2020/12/17 06:20:42;;;;;;;;;29.50;21.00;;;;;12.56;52.10;99201.19;4792214;28;103886;-77
2020/12/17 06:23:11;;;;;;;;;25.75;24.00;;;;;12.55;52.37;99205.78;4796495;28;102312;-77
2020/12/17 06:25:38;;;;;;;;;26.50;23.25;;;;;12.53;52.04;99211.41;4791802;29;109151;-80
2020/12/17 06:28:05;;;;;;;;;27.25;22.75;;;;;12.54;52.24;99204.09;4772401;29;103142;-80
2020/12/17 06:30:38;;;;;;;;;25.25;21.25;;;;;12.52;51.72;99212.44;4782140;29;102641;-80
2020/12/17 06:33:05;;;;;;;;;28.50;22.50;;;;;12.53;52.39;99207.84;4783944;28;103448;-80
2020/12/17 06:35:41;;;;;;;;;32.75;24.00;;;;;12.53;52.64;99213.28;4793784;28;105679;-80
2020/12/17 06:38:12;;;;;;;;;25.00;22.00;;;;;12.53;52.01;99210.56;4784803;28;104451;-80
2020/12/17 06:40:39;;;;;;;;;22.75;21.50;;;;;12.51;52.11;99216.19;4785611;28;102762;-80
2020/12/17 06:43:13;;;;;;;;;23.75;20.75;;;;;12.52;52.51;99227.88;4789030;28;104329;-80
2020/12/17 06:45:39;;;;;;;;;26.25;22.75;;;;;12.51;52.78;99229.75;4791564;29;108839;-79
2020/12/17 06:48:47;;;;;;;;;26.00;22.00;;;;;12.50;52.26;99228.06;4789034;28;103105;-80
2020/12/17 06:51:34;;;;;;;;;25.75;22.00;;;;;12.50;51.94;99241.63;4701033;29;103137;-79
2020/12/17 06:54:05;;;;;;;;;29.25;23.00;;;;;12.50;51.95;99246.22;4787534;29;103435;-80
2020/12/17 06:56:32;;;;;;;;;28.50;24.25;;;;;12.50;52.04;99246.22;4790309;29;104110;-80
2020/12/17 06:59:15;;;;;;;;;27.25;21.75;;;;;12.50;52.96;99247.06;4790403;29;102192;-80
2020/12/17 07:01:41;;;;;;;;;21.50;20.00;;;;;12.51;52.13;99247.91;4788831;29;102157;-79
2020/12/17 07:04:08;;;;;;;;;23.75;20.25;;;;;12.50;52.32;99252.50;4801138;28;103253;-80
2020/12/17 07:06:35;;;;;;;;;28.50;22.50;;;;;12.50;52.28;99249.78;4789032;29;104190;-80
2020/12/17 07:09:02;;;;;;;;;25.25;22.00;;;;;12.50;52.25;99251.66;4792795;28;103817;-80
2020/12/17 07:11:38;;;;;;;;;24.00;18.25;;;;;12.48;52.02;99249.13;4795486;29;102692;-80
2020/12/17 07:14:06;;;;;;;;;18.75;16.00;;;;;12.48;52.80;99249.13;4798028;28;103289;-80
2020/12/17 07:16:37;;;;;;;;;25.75;22.00;;;;;12.48;52.22;99245.56;4792918;29;104139;-80
2020/12/17 07:19:20;;;;;;;;;23.00;20.50;;;;;12.47;52.34;99258.28;4793385;29;102608;-80
2020/12/17 07:21:59;;;;;;;;;28.75;23.75;;;;;12.46;52.88;99259.34;4703782;29;102777;-79
2020/12/17 07:24:31;;;;;;;;;27.00;23.25;;;;;12.46;51.97;99258.50;4793907;28;102277;-80
2020/12/17 07:26:59;;;;;;;;;26.25;25.00;;;;;12.46;52.35;99261.22;4793744;28;104071;-80
2020/12/17 07:29:36;;;;;;;;;27.50;24.75;;;;;12.44;52.41;99253.28;4792161;28;103913;-80
2020/12/17 07:32:22;;;;;;;;;27.75;21.00;;;;;12.44;52.22;99255.97;4793571;28;103822;-80
2020/12/17 07:34:49;;;;;;;;;24.50;21.50;;;;;12.44;52.86;99258.69;4734947;28;107491;-79
2020/12/17 07:37:55;;;;;;;;;23.25;21.75;;;;;12.45;52.67;99259.53;4792412;28;104035;-79
2020/12/17 07:40:34;;;;;;;;;27.25;20.75;;;;;12.44;51.68;99263.28;4735406;29;102680;-80
2020/12/17 07:43:14;;;;;;;;;30.50;22.50;;;;;12.43;52.69;99262.44;4796793;28;103799;-80
2020/12/17 07:46:00;;;;;;;;;24.25;19.75;;;;;12.43;52.17;99267.84;4811864;28;104540;-80
2020/12/17 07:48:46;;;;;;;;;25.25;23.25;;;;;12.43;52.20;99270.56;4731475;29;108974;-80
2020/12/17 07:51:14;;;;;;;;;25.50;23.75;;;;;12.43;52.44;99261.59;4791202;29;102201;-79
2020/12/17 07:53:41;;;;;;;;;29.25;23.75;;;;;12.42;52.59;99265.38;4800430;28;102443;-80
2020/12/17 07:56:08;;;;;;;;;31.50;24.00;;;;;12.42;51.88;99270.78;4795996;28;102332;-80
2020/12/17 07:58:38;;;;;;;;;26.75;23.25;;;;;12.41;51.89;99269.94;4792245;28;104112;-80
2020/12/17 08:01:05;;;;;;;;;26.50;23.00;;;;;12.41;51.65;99274.53;4790950;28;102171;-80
2020/12/17 08:03:48;;;;;;;;;27.50;22.25;;;;;12.42;52.59;99270.78;4811543;28;103510;-80
2020/12/17 08:06:17;;;;;;;;;25.50;21.00;;;;;12.41;51.72;99277.25;4788376;28;102288;-80
2020/12/17 08:08:44;;;;;;;;;30.25;24.75;;;;;12.40;52.16;99272.84;4794023;28;107915;-80
2020/12/17 08:11:28;;;;;;;;;29.75;27.50;;;;;12.39;51.92;99269.28;4795301;28;103157;-80
2020/12/17 08:14:07;;;;;;;;;24.25;21.75;;;;;12.39;52.16;99271.16;4797773;28;102456;-79
2020/12/17 08:16:34;;;;;;;;;22.75;20.75;;;;;12.39;51.97;99272.00;4793971;28;104488;-80
2020/12/17 08:19:01;;;;;;;;;28.75;23.50;;;;;12.39;51.62;99274.72;4793679;29;104087;-80
2020/12/17 08:21:28;;;;;;;;;24.00;22.75;;;;;12.39;52.11;99269.28;4796661;28;102602;-80
2020/12/17 08:23:55;;;;;;;;;31.25;26.25;;;;;12.39;52.38;99269.28;4791930;28;102162;-80
2020/12/17 08:26:23;;;;;;;;;26.75;23.25;;;;;12.37;52.37;99268.66;4794639;29;102217;-80
2020/12/17 08:28:51;;;;;;;;;28.25;23.50;;;;;12.37;52.56;99263.25;4796078;29;104007;-80
2020/12/17 08:31:21;;;;;;;;;28.50;21.75;;;;;12.38;52.02;99261.38;4798809;29;102180;-80
2020/12/17 08:33:52;;;;;;;;;23.25;20.50;;;;;12.37;51.59;99265.13;4789186;28;102619;-80
2020/12/17 08:36:25;;;;;;;;;26.75;24.00;;;;;12.37;52.29;99270.53;4796449;28;107472;-80
2020/12/17 08:39:20;;;;;;;;;29.00;24.00;;;;;12.37;52.67;99271.38;4797433;29;104099;-80
2020/12/17 08:41:49;;;;;;;;;27.25;25.25;;;;;12.37;51.65;99287.66;4745497;29;102263;-80
2020/12/17 08:44:29;;;;;;;;;27.00;23.50;;;;;12.37;51.69;99275.97;4794858;29;102107;-79
2020/12/17 08:47:16;;;;;;;;;24.25;22.50;;;;;12.37;52.18;99284.94;4791998;28;102741;-79
2020/12/17 08:49:42;;;;;;;;;26.00;21.50;;;;;12.37;52.60;99281.38;4792521;28;108864;-80
2020/12/17 08:52:09;;;;;;;;;26.50;24.00;;;;;12.36;52.37;99283.25;4795200;29;102077;-80
2020/12/17 08:54:37;;;;;;;;;24.75;21.25;;;;;12.37;52.35;99284.09;4789955;29;103418;-80
2020/12/17 08:57:07;;;;;;;;;27.75;24.00;;;;;12.35;51.97;99281.56;4796644;28;102690;-80
2020/12/17 08:59:34;;;;;;;;;23.25;21.00;;;;;12.36;52.60;99288.69;4796814;29;104143;-80
2020/12/17 09:02:00;;;;;;;;;23.00;21.75;;;;;12.34;51.87;99285.31;4790527;29;102469;-80
2020/12/17 09:04:28;;;;;;;;;30.00;25.00;;;;;12.35;52.38;99281.56;4789685;29;102108;-79
2020/12/17 09:06:56;;;;;;;;;28.25;22.50;;;;;12.33;52.25;99282.81;4790486;29;102177;-80
2020/12/17 09:09:27;;;;;;;;;29.75;25.25;;;;;12.34;52.43;99279.88;4794967;29;104088;-79
2020/12/17 09:12:09;;;;;;;;;26.75;22.50;;;;;12.34;51.75;99274.47;4789773;29;102423;-80
2020/12/17 09:14:37;;;;;;;;;26.75;23.50;;;;;12.33;52.51;99280.94;4794590;29;102699;-80
2020/12/17 09:17:12;;;;;;;;;23.00;21.25;;;;;12.35;52.31;99278.84;4819165;29;102210;-80
2020/12/17 09:19:40;;;;;;;;;24.50;23.50;;;;;12.34;51.75;99270.91;4812717;29;103231;-80
2020/12/17 09:22:07;;;;;;;;;23.75;19.50;;;;;12.34;51.54;99274.47;4812792;29;102077;-80
2020/12/17 09:24:35;;;;;;;;;20.50;20.25;;;;;12.34;52.46;99274.47;4815536;29;102082;-78
2020/12/17 09:27:25;;;;;;;;;27.00;21.25;;;;;12.33;52.49;99270.09;4815129;29;102147;-78
2020/12/17 09:30:14;;;;;;;;;23.25;20.25;;;;;12.33;51.74;99267.38;4810846;29;103119;-78
2020/12/17 09:32:51;;;;;;;;;23.00;19.75;;;;;12.32;52.33;99265.69;4809159;29;102914;-78
2020/12/17 09:35:18;;;;;;;;;22.25;18.75;;;;;12.33;52.32;99267.38;4816944;29;102389;-78
2020/12/17 09:38:02;;;;;;;;;25.25;23.50;;;;;12.32;52.35;99264.84;4821029;29;102235;-78
2020/12/17 09:40:29;;;;;;;;;24.00;21.25;;;;;12.33;52.31;99261.13;4814224;29;104118;-78
2020/12/17 09:43:25;;;;;;;;;25.25;22.00;;;;;12.32;52.28;99260.28;4815566;29;102115;-78
2020/12/17 09:45:55;;;;;;;;;24.25;21.00;;;;;12.31;52.41;99253.16;4811549;29;102402;-78
2020/12/17 09:48:30;;;;;;;;;21.25;20.00;;;;;12.32;52.43;99259.44;4830813;29;102280;-78
2020/12/17 09:51:03;;;;;;;;;23.25;22.25;;;;;12.31;52.27;99255.03;4815356;29;103201;-78
2020/12/17 09:53:32;;;;;;;;;25.25;23.25;;;;;12.30;51.81;99256.91;4811420;29;102919;-78
2020/12/17 09:55:59;;;;;;;;;26.25;20.00;;;;;12.31;51.81;99252.31;4814585;29;102026;-80
2020/12/17 09:58:25;;;;;;;;;21.75;20.00;;;;;12.31;51.96;99257.75;4813617;29;102189;-80
2020/12/17 10:01:20;;;;;;;;;21.50;20.75;;;;;12.31;52.37;99257.75;4813688;29;104213;-80
2020/12/17 10:03:47;;;;;;;;;26.00;20.00;;;;;12.31;52.19;99263.19;4808767;29;102935;-80
2020/12/17 10:06:14;;;;;;;;;22.75;20.00;;;;;12.30;52.22;99258.78;4813679;29;102189;-80
2020/12/17 10:08:40;;;;;;;;;22.00;20.50;;;;;12.30;51.94;99261.50;4817108;29;102336;-80
2020/12/17 10:11:07;;;;;;;;;22.75;18.75;;;;;12.30;52.69;99256.06;4813345;29;104039;-80
2020/12/17 10:13:35;;;;;;;;;21.25;19.25;;;;;12.30;52.42;99256.06;4819594;29;102163;-80
2020/12/17 10:16:02;;;;;;;;;23.50;18.25;;;;;12.29;52.28;99255.22;4816682;29;102118;-80
2020/12/17 10:18:29;;;;;;;;;19.25;18.50;;;;;12.30;51.75;99256.91;4812356;29;102717;-80
2020/12/17 10:20:56;;;;;;;;;25.75;21.00;;;;;12.29;52.31;99257.13;4816139;29;104068;-80
2020/12/17 10:23:23;;;;;;;;;26.50;23.25;;;;;12.28;51.86;99256.28;4820304;29;102055;-80
2020/12/17 10:25:50;;;;;;;;;26.00;22.00;;;;;12.29;51.92;99255.22;4810921;29;102130;-80
2020/12/17 10:28:16;;;;;;;;;22.25;20.00;;;;;12.28;51.68;99253.56;4817260;29;102162;-79
2020/12/17 10:30:43;;;;;;;;;24.75;18.50;;;;;12.29;52.26;99260.66;4817332;29;105075;-79
2020/12/17 10:33:10;;;;;;;;;23.50;19.00;;;;;12.30;52.37;99262.34;4809516;29;104342;-80
2020/12/17 10:35:36;;;;;;;;;28.00;24.00;;;;;12.29;52.07;99252.50;4814457;29;103068;-80
2020/12/17 10:38:03;;;;;;;;;24.75;19.75;;;;;12.29;51.71;99260.66;4816975;29;102833;-80
2020/12/17 10:40:30;;;;;;;;;20.50;20.00;;;;;12.29;52.23;99251.69;4815935;29;104137;-80
2020/12/17 10:42:59;;;;;;;;;22.75;19.00;;;;;12.29;51.87;99255.22;4810337;29;101981;-80
2020/12/17 10:45:25;;;;;;;;;24.00;21.75;;;;;12.28;52.30;99253.56;4814510;29;101982;-80
2020/12/17 10:47:52;;;;;;;;;18.50;18.00;;;;;12.28;51.63;99256.28;4813548;29;102744;-80
2020/12/17 10:50:19;;;;;;;;;20.50;16.25;;;;;12.28;52.37;99252.72;4813473;29;104107;-80
2020/12/17 10:52:45;;;;;;;;;22.25;19.50;;;;;12.26;52.09;99260.22;4815221;29;102146;-80
2020/12/17 10:55:12;;;;;;;;;22.50;19.75;;;;;12.27;52.15;99262.72;4815370;29;102253;-78
2020/12/17 10:57:39;;;;;;;;;24.25;19.75;;;;;12.27;51.84;99259.19;4816407;29;102226;-78
2020/12/17 11:00:06;;;;;;;;;23.50;19.75;;;;;12.27;52.46;99260.03;4813572;29;104067;-78
2020/12/17 11:02:33;;;;;;;;;23.25;20.25;;;;;12.26;52.19;99260.22;4811591;29;102791;-78
2020/12/17 11:05:00;;;;;;;;;28.50;24.75;;;;;12.25;51.68;99259.38;4813909;29;101997;-78
2020/12/17 11:07:28;;;;;;;;;23.75;19.50;;;;;12.26;52.10;99263.75;4810134;29;103918;-78
2020/12/17 11:09:55;;;;;;;;;19.75;19.50;;;;;12.25;52.05;99258.53;4814144;29;104059;-78
2020/12/17 11:12:22;;;;;;;;;22.00;20.50;;;;;12.25;51.87;99256.66;4819077;29;102114;-78
2020/12/17 11:14:48;;;;;;;;;22.00;19.75;;;;;12.25;51.51;99259.38;4814109;29;102299;-78
2020/12/17 11:17:15;;;;;;;;;20.25;17.00;;;;;12.24;52.49;99257.72;4812098;29;102110;-78
2020/12/17 11:19:42;;;;;;;;;19.25;17.25;;;;;12.24;52.22;99251.44;4818320;29;104624;-78